createdAt,value
2023-10-15T00:00:26.379Z,9.71
2023-10-15T00:02:53.592Z,9.81
2023-10-15T00:05:22.774Z,9.65
2023-10-15T00:07:50.756Z,9.81
2023-10-15T00:10:19.967Z,9.51
2023-10-15T00:12:48.235Z,9.93
2023-10-15T00:15:16.807Z,9.88
2023-10-15T00:17:44.061Z,10.01
2023-10-15T00:20:20.958Z,10.02
2023-10-15T00:22:48.655Z,9.87
2023-10-15T00:25:15.789Z,9.74
2023-10-15T00:27:43.544Z,9.84
2023-10-15T00:30:20.469Z,9.55
2023-10-15T00:32:47.932Z,9.65
2023-10-15T00:35:15.558Z,9.43
2023-10-15T00:37:42.333Z,9.44
2023-10-15T00:40:17.455Z,9.33
2023-10-15T00:42:46.026Z,9.37
2023-10-15T00:45:16.010Z,9.45
2023-10-15T00:47:43.937Z,9.79
2023-10-15T00:50:10.867Z,9.40
2023-10-15T00:52:43.544Z,9.29
2023-10-15T00:55:18.135Z,9.49
2023-10-15T00:57:49.057Z,9.36
2023-10-15T01:00:34.743Z,9.67
2023-10-15T01:03:07.536Z,9.56
2023-10-15T01:05:46.029Z,9.25
2023-10-15T01:08:17.510Z,9.49
2023-10-15T01:10:44.724Z,9.32
2023-10-15T01:13:22.463Z,9.26
2023-10-15T01:15:54.084Z,9.33
2023-10-15T01:18:20.423Z,9.34
2023-10-15T01:20:46.917Z,9.39
2023-10-15T01:23:33.208Z,9.32
2023-10-15T01:26:01.025Z,8.98
2023-10-15T01:28:40.227Z,9.03
2023-10-15T01:31:07.362Z,8.97
2023-10-15T01:33:47.343Z,9.32
2023-10-15T01:36:19.335Z,9.40
2023-10-15T01:38:45.745Z,9.08
2023-10-15T01:41:20.431Z,9.09
2023-10-15T01:43:51.772Z,9.35
2023-10-15T01:46:37.023Z,9.21
2023-10-15T01:49:07.988Z,9.67
2023-10-15T01:51:40.414Z,9.36
2023-10-15T01:54:10.537Z,9.47
2023-10-15T01:56:46.138Z,9.22
2023-10-15T01:59:12.873Z,8.86
2023-10-15T02:01:42.344Z,8.76
2023-10-15T02:04:28.003Z,9.31
2023-10-15T02:06:54.769Z,9.13
2023-10-15T02:09:24.375Z,9.00
2023-10-15T02:11:55.155Z,9.16
2023-10-15T02:14:28.449Z,9.31
2023-10-15T02:16:55.348Z,9.27
2023-10-15T02:19:42.498Z,9.20
2023-10-15T02:22:13.910Z,9.44
2023-10-15T02:24:48.439Z,9.37
2023-10-15T02:27:26.719Z,8.67
2023-10-15T02:29:53.422Z,9.18
2023-10-15T02:32:26.987Z,9.27
2023-10-15T02:34:55.088Z,8.93
2023-10-15T02:37:25.119Z,8.87
2023-10-15T02:39:51.796Z,8.69
2023-10-15T02:42:23.121Z,8.97
2023-10-15T02:44:52.478Z,9.01
2023-10-15T02:47:42.668Z,8.87
2023-10-15T02:50:14.724Z,9.00
2023-10-15T02:52:47.815Z,8.90
2023-10-15T02:55:17.500Z,8.88
2023-10-15T02:57:45.047Z,8.91
2023-10-15T03:00:32.075Z,8.91
2023-10-15T03:02:59.414Z,8.75
2023-10-15T03:05:31.667Z,8.38
2023-10-15T03:08:01.237Z,8.84
2023-10-15T03:10:45.945Z,8.94
2023-10-15T03:13:15.375Z,8.55
2023-10-15T03:15:49.989Z,8.58
2023-10-15T03:18:23.106Z,8.78
2023-10-15T03:20:50.967Z,8.95
2023-10-15T03:23:18.375Z,8.46
2023-10-15T03:25:44.903Z,8.71
2023-10-15T03:28:13.727Z,8.70
2023-10-15T03:30:45.571Z,8.76
2023-10-15T03:33:14.996Z,8.73
2023-10-15T03:35:46.686Z,8.82
2023-10-15T03:38:16.512Z,8.86
2023-10-15T03:40:51.114Z,8.88
2023-10-15T03:43:21.611Z,8.92
2023-10-15T03:45:54.911Z,8.54
2023-10-15T03:48:23.380Z,8.74
2023-10-15T03:50:56.438Z,8.69
2023-10-15T03:53:29.545Z,8.64
2023-10-15T03:55:57.703Z,8.45
2023-10-15T03:58:24.707Z,9.02
2023-10-15T04:01:03.490Z,8.84
2023-10-15T04:03:29.985Z,8.84
2023-10-15T04:06:02.495Z,8.83
2023-10-15T04:08:32.108Z,8.91
2023-10-15T04:10:59.561Z,8.82
2023-10-15T04:13:28.985Z,8.64
2023-10-15T04:15:56.625Z,8.76
2023-10-15T04:18:26.556Z,8.81
2023-10-15T04:20:54.537Z,8.79
2023-10-15T04:23:33.032Z,8.78
2023-10-15T04:26:02.199Z,8.68
2023-10-15T04:28:29.576Z,8.52
2023-10-15T04:30:57.319Z,7.77
2023-10-15T04:33:27.654Z,8.00
2023-10-15T04:35:54.167Z,8.27
2023-10-15T04:38:23.442Z,8.53
2023-10-15T04:40:59.053Z,8.56
2023-10-15T04:43:29.045Z,8.23
2023-10-15T04:46:03.663Z,8.01
2023-10-15T04:48:33.557Z,8.48
2023-10-15T04:51:13.174Z,8.47
2023-10-15T04:53:46.084Z,8.24
2023-10-15T04:56:13.766Z,8.38
2023-10-15T04:58:40.574Z,8.28
2023-10-15T05:01:08.404Z,7.97
2023-10-15T05:03:36.012Z,8.45
2023-10-15T05:06:03.731Z,8.41
2023-10-15T05:08:30.233Z,8.34
2023-10-15T05:10:57.043Z,8.08
2023-10-15T05:13:25.881Z,8.06
2023-10-15T05:15:52.784Z,7.97
2023-10-15T05:18:20.360Z,7.86
2023-10-15T05:20:51.586Z,7.99
2023-10-15T05:23:19.224Z,7.90
2023-10-15T05:25:45.667Z,7.94
2023-10-15T05:28:15.689Z,8.21
2023-10-15T05:30:42.918Z,7.97
2023-10-15T05:33:09.492Z,8.04
2023-10-15T05:35:35.953Z,7.84
2023-10-15T05:38:02.378Z,7.72
2023-10-15T05:40:30.577Z,7.95
2023-10-15T05:42:56.977Z,7.83
2023-10-15T05:45:25.725Z,8.00
2023-10-15T05:47:52.202Z,7.97
2023-10-15T05:50:18.926Z,8.27
2023-10-15T05:52:46.678Z,7.80
2023-10-15T05:55:13.402Z,7.86
2023-10-15T05:57:39.762Z,7.76
2023-10-15T06:00:25.333Z,7.99
2023-10-15T06:02:52.048Z,7.66
2023-10-15T06:05:18.547Z,7.88
2023-10-15T06:07:45.603Z,8.13
2023-10-15T06:10:15.353Z,7.91
2023-10-15T06:12:42.771Z,7.91
2023-10-15T06:15:10.586Z,7.77
2023-10-15T06:17:37.111Z,7.78
2023-10-15T06:20:16.076Z,8.03
2023-10-15T06:22:47.809Z,8.08
2023-10-15T06:25:15.365Z,8.29
2023-10-15T06:27:42.150Z,8.52
2023-10-15T06:30:15.664Z,8.59
2023-10-15T06:32:45.999Z,8.27
2023-10-15T06:35:19.172Z,8.29
2023-10-15T06:37:56.610Z,8.35
2023-10-15T06:40:24.334Z,8.26
2023-10-15T06:42:52.781Z,8.29
2023-10-15T06:45:22.825Z,8.26
2023-10-15T06:47:53.398Z,8.40
2023-10-15T06:50:24.747Z,8.64
2023-10-15T06:52:53.710Z,8.54
2023-10-15T06:55:23.413Z,8.79
2023-10-15T06:57:51.031Z,8.85
2023-10-15T07:00:24.235Z,8.87
2023-10-15T07:02:55.075Z,8.96
2023-10-15T07:05:24.968Z,8.68
2023-10-15T07:07:51.785Z,8.62
2023-10-15T07:10:18.607Z,8.66
2023-10-15T07:12:51.808Z,8.72
2023-10-15T07:15:21.572Z,8.83
2023-10-15T07:17:50.582Z,9.39
2023-10-15T07:20:22.365Z,9.17
2023-10-15T07:22:50.400Z,9.30
2023-10-15T07:25:18.311Z,9.27
2023-10-15T07:27:49.824Z,9.49
2023-10-15T07:30:18.161Z,9.82
2023-10-15T07:32:45.937Z,9.64
2023-10-15T07:35:14.835Z,9.49
2023-10-15T07:37:45.723Z,9.76
2023-10-15T07:40:18.164Z,9.41
2023-10-15T07:42:45.998Z,9.63
2023-10-15T07:45:13.294Z,9.44
2023-10-15T07:47:39.996Z,9.08
2023-10-15T07:50:08.865Z,9.39
2023-10-15T07:52:36.136Z,9.46
2023-10-15T07:55:02.886Z,9.45
2023-10-15T07:57:29.292Z,9.51
2023-10-15T07:59:58.782Z,9.55
2023-10-15T08:02:28.239Z,9.67
2023-10-15T08:04:58.404Z,10.30
2023-10-15T08:07:25.149Z,10.29
2023-10-15T08:09:51.510Z,10.08
2023-10-15T08:12:18.085Z,10.14
2023-10-15T08:14:46.124Z,10.18
2023-10-15T08:17:14.913Z,10.61
2023-10-15T08:19:41.491Z,10.60
2023-10-15T08:22:09.872Z,10.31
2023-10-15T08:24:39.233Z,10.60
2023-10-15T08:27:07.042Z,10.28
2023-10-15T08:29:33.415Z,10.36
2023-10-15T08:32:02.730Z,10.14
2023-10-15T08:34:29.446Z,10.26
2023-10-15T08:36:55.806Z,10.05
2023-10-15T08:39:24.923Z,10.16
2023-10-15T08:41:52.970Z,10.24
2023-10-15T08:44:21.513Z,10.27
2023-10-15T08:46:50.873Z,10.41
2023-10-15T08:49:17.876Z,10.41
2023-10-15T08:51:44.416Z,10.44
2023-10-15T08:54:13.155Z,10.78
2023-10-15T08:56:44.649Z,10.27
2023-10-15T08:59:11.855Z,10.21
2023-10-15T09:01:38.866Z,10.82
2023-10-15T09:04:05.806Z,10.36
2023-10-15T09:06:32.574Z,10.63
2023-10-15T09:09:01.076Z,10.45
2023-10-15T09:11:28.721Z,10.57
2023-10-15T09:13:55.435Z,10.78
2023-10-15T09:16:22.654Z,11.00
2023-10-15T09:18:51.319Z,11.51
2023-10-15T09:21:26.415Z,11.77
2023-10-15T09:23:53.826Z,11.48
2023-10-15T09:26:21.221Z,12.13
2023-10-15T09:28:47.646Z,11.25
2023-10-15T09:31:14.125Z,11.57
2023-10-15T09:33:41.243Z,11.25
2023-10-15T09:36:08.319Z,11.64
2023-10-15T09:38:38.296Z,10.72
2023-10-15T09:41:06.958Z,10.60
2023-10-15T09:43:37.392Z,11.05
2023-10-15T09:46:05.026Z,10.96
2023-10-15T09:48:35.010Z,11.18
2023-10-15T09:51:01.369Z,11.56
2023-10-15T09:53:30.625Z,11.82
2023-10-15T09:56:00.373Z,11.55
2023-10-15T09:58:27.219Z,11.30
2023-10-15T10:01:10.183Z,11.36
2023-10-15T10:03:38.817Z,11.56
2023-10-15T10:06:13.711Z,11.63
2023-10-15T10:09:06.061Z,12.26
2023-10-15T10:12:04.589Z,12.18
2023-10-15T10:14:57.143Z,11.57
2023-10-15T10:17:24.077Z,11.82
2023-10-15T10:19:54.064Z,11.19
2023-10-15T10:22:27.951Z,11.32
2023-10-15T10:24:55.158Z,11.36
2023-10-15T10:27:21.554Z,11.53
2023-10-15T10:29:54.755Z,12.11
2023-10-15T10:32:24.133Z,12.19
2023-10-15T10:35:19.727Z,12.67
2023-10-15T10:38:11.817Z,12.54
2023-10-15T10:40:49.273Z,12.49
2023-10-15T10:43:20.421Z,13.16
2023-10-15T10:45:53.590Z,12.73
2023-10-15T10:48:27.067Z,12.62
2023-10-15T10:51:08.851Z,13.03
2023-10-15T10:53:35.761Z,13.63
2023-10-15T10:56:04.932Z,13.39
2023-10-15T10:58:31.480Z,13.72
2023-10-15T11:00:58.455Z,13.54
2023-10-15T11:03:24.849Z,13.22
2023-10-15T11:05:53.325Z,13.33
2023-10-15T11:08:20.391Z,13.95
2023-10-15T11:10:46.965Z,13.82
2023-10-15T11:13:13.721Z,13.53
2023-10-15T11:15:40.140Z,13.11
2023-10-15T11:18:10.018Z,12.57
2023-10-15T11:20:37.167Z,12.20
2023-10-15T11:23:07.118Z,11.95
2023-10-15T11:25:35.900Z,12.48
2023-10-15T11:28:05.377Z,12.24
2023-10-15T11:30:32.830Z,12.61
2023-10-15T11:33:00.891Z,12.75
2023-10-15T11:35:33.866Z,12.62
2023-10-15T11:38:08.789Z,12.50
2023-10-15T11:40:39.770Z,12.57
2023-10-15T11:43:16.340Z,12.04
2023-10-15T11:45:42.979Z,12.42
2023-10-15T11:48:15.480Z,11.02
2023-10-15T11:50:42.994Z,10.83
2023-10-15T11:53:21.357Z,10.85
2023-10-15T11:55:48.800Z,10.27
2023-10-15T11:58:17.663Z,10.94
2023-10-15T12:00:49.114Z,10.80
2023-10-15T12:03:19.838Z,11.22
2023-10-15T12:05:46.427Z,11.66
2023-10-15T12:08:17.789Z,11.41
2023-10-15T12:10:44.324Z,11.76
2023-10-15T12:13:12.776Z,11.76
2023-10-15T12:15:39.499Z,11.96
2023-10-15T12:18:06.049Z,12.46
2023-10-15T12:20:32.503Z,12.58
2023-10-15T12:22:58.983Z,12.08
2023-10-15T12:25:25.605Z,11.70
2023-10-15T12:27:52.380Z,12.01
2023-10-15T12:30:25.029Z,12.25
2023-10-15T12:32:52.679Z,12.16
2023-10-15T12:35:20.651Z,12.43
2023-10-15T12:37:48.196Z,12.17
2023-10-15T12:40:22.540Z,12.77
2023-10-15T12:42:49.219Z,12.75
2023-10-15T12:45:15.633Z,12.52
2023-10-15T12:47:42.117Z,12.54
2023-10-15T12:50:18.093Z,11.91
2023-10-15T12:52:48.296Z,12.29
2023-10-15T12:55:21.189Z,12.50
2023-10-15T12:57:48.413Z,12.56
2023-10-15T13:00:22.510Z,12.82
2023-10-15T13:02:50.970Z,12.91
2023-10-15T13:05:26.716Z,12.76
2023-10-15T13:07:54.928Z,11.77
2023-10-15T13:10:22.079Z,11.08
2023-10-15T13:12:49.796Z,10.84
2023-10-15T13:15:18.527Z,10.96
2023-10-15T13:17:46.040Z,11.13
2023-10-15T13:20:12.939Z,10.87
2023-10-15T13:22:39.614Z,11.26
2023-10-15T13:25:07.052Z,11.20
2023-10-15T13:27:34.864Z,11.11
2023-10-15T13:30:02.024Z,11.19
2023-10-15T13:32:28.959Z,11.11
2023-10-15T13:34:55.382Z,11.12
2023-10-15T13:37:22.120Z,11.52
2023-10-15T13:39:51.051Z,10.97
2023-10-15T13:42:17.737Z,11.04
2023-10-15T13:44:44.088Z,10.45
2023-10-15T13:47:11.468Z,10.76
2023-10-15T13:49:38.390Z,10.88
2023-10-15T13:52:07.983Z,10.67
2023-10-15T13:54:34.867Z,10.78
2023-10-15T13:57:01.281Z,10.46
2023-10-15T13:59:27.950Z,11.05
2023-10-15T14:01:58.960Z,10.90
2023-10-15T14:04:25.735Z,11.00
2023-10-15T14:06:53.356Z,11.24
2023-10-15T14:09:19.771Z,10.82
2023-10-15T14:11:46.122Z,11.08
2023-10-15T14:14:12.526Z,10.82
2023-10-15T14:16:40.115Z,10.60
2023-10-15T14:19:06.601Z,10.97
2023-10-15T14:21:33.116Z,10.63
2023-10-15T14:23:59.504Z,10.32
2023-10-15T14:26:25.884Z,10.29
2023-10-15T14:28:55.194Z,10.54
2023-10-15T14:31:22.973Z,10.42
2023-10-15T14:33:49.367Z,10.57
2023-10-15T14:36:15.983Z,10.66
2023-10-15T14:38:42.394Z,10.24
2023-10-15T14:41:09.402Z,10.43
2023-10-15T14:43:37.960Z,10.13
2023-10-15T14:46:05.683Z,10.01
2023-10-15T14:48:32.049Z,10.11
2023-10-15T14:51:01.575Z,10.42
2023-10-15T14:53:30.823Z,10.53
2023-10-15T14:55:57.256Z,10.21
2023-10-15T14:58:23.621Z,10.41
2023-10-15T15:00:49.999Z,10.51
2023-10-15T15:03:22.795Z,10.57
2023-10-15T15:05:49.593Z,10.36
2023-10-15T15:08:16.082Z,10.48
2023-10-15T15:10:42.563Z,10.92
2023-10-15T15:13:09.358Z,10.48
2023-10-15T15:15:35.793Z,11.02
2023-10-15T15:18:02.262Z,10.50
2023-10-15T15:20:29.296Z,10.52
2023-10-15T15:22:55.986Z,10.58
2023-10-15T15:25:24.007Z,10.42
2023-10-15T15:27:50.361Z,10.53
2023-10-15T15:30:19.165Z,10.39
2023-10-15T15:32:47.433Z,11.12
2023-10-15T15:35:14.051Z,10.96
2023-10-15T15:37:41.347Z,10.67
2023-10-15T15:40:08.672Z,10.86
2023-10-15T15:42:35.352Z,10.65
2023-10-15T15:45:02.334Z,10.34
2023-10-15T15:47:29.023Z,10.58
2023-10-15T15:49:55.542Z,10.21
2023-10-15T15:52:21.998Z,10.16
2023-10-15T15:54:48.387Z,9.98
2023-10-15T15:57:14.821Z,10.07
2023-10-15T15:59:41.337Z,9.91
2023-10-15T16:02:08.145Z,9.86
2023-10-15T16:04:34.787Z,9.77
2023-10-15T16:07:01.487Z,9.95
2023-10-15T16:09:27.978Z,9.99
2023-10-15T16:11:55.548Z,10.03
2023-10-15T16:14:21.994Z,10.23
2023-10-15T16:16:48.484Z,10.19
2023-10-15T16:19:15.393Z,10.18
2023-10-15T16:21:41.724Z,10.02
2023-10-15T16:24:08.968Z,10.11
2023-10-15T16:26:36.198Z,10.19
2023-10-15T16:29:02.588Z,9.99
2023-10-15T16:31:29.321Z,9.57
2023-10-15T16:33:55.787Z,9.73
2023-10-15T16:36:22.162Z,9.59
2023-10-15T16:38:48.574Z,9.40
2023-10-15T16:41:16.843Z,9.48
2023-10-15T16:43:43.292Z,9.20
2023-10-15T16:46:10.047Z,8.99
2023-10-15T16:48:36.534Z,9.04
2023-10-15T16:51:13.767Z,9.34
2023-10-15T16:53:44.970Z,9.44
2023-10-15T16:56:11.481Z,9.29
2023-10-15T16:58:40.287Z,9.45
2023-10-15T17:01:06.896Z,9.45
2023-10-15T17:03:33.281Z,9.20
2023-10-15T17:05:59.660Z,9.34
2023-10-15T17:08:25.996Z,9.53
2023-10-15T17:10:52.906Z,9.26
2023-10-15T17:13:19.462Z,9.70
2023-10-15T17:15:45.823Z,9.78
2023-10-15T17:18:12.246Z,9.48
2023-10-15T17:20:38.694Z,9.79
2023-10-15T17:23:06.098Z,9.97
2023-10-15T17:25:32.805Z,10.08
2023-10-15T17:27:59.178Z,10.03
2023-10-15T17:30:25.633Z,9.89
2023-10-15T17:32:52.322Z,9.85
2023-10-15T17:35:18.766Z,10.02
2023-10-15T17:37:45.252Z,9.74
2023-10-15T17:40:12.226Z,9.90
2023-10-15T17:42:42.092Z,9.83
2023-10-15T17:45:09.029Z,9.79
2023-10-15T17:47:35.717Z,9.79
2023-10-15T17:50:02.389Z,9.74
2023-10-15T17:52:28.804Z,9.66
2023-10-15T17:54:55.215Z,9.61
2023-10-15T17:57:21.623Z,9.39
2023-10-15T17:59:48.269Z,9.24
2023-10-15T18:02:14.600Z,8.93
2023-10-15T18:04:41.049Z,9.05
2023-10-15T18:07:07.460Z,8.92
2023-10-15T18:09:35.153Z,9.00
2023-10-15T18:12:02.006Z,9.07
2023-10-15T18:14:28.725Z,9.45
2023-10-15T18:16:55.155Z,9.45
2023-10-15T18:19:21.548Z,9.61
2023-10-15T18:21:48.508Z,9.51
2023-10-15T18:24:15.330Z,9.50
2023-10-15T18:26:41.964Z,9.48
2023-10-15T18:29:08.356Z,9.59
2023-10-15T18:31:36.006Z,9.46
2023-10-15T18:34:02.358Z,9.63
2023-10-15T18:36:28.914Z,9.76
2023-10-15T18:38:56.983Z,9.70
2023-10-15T18:41:23.391Z,9.80
2023-10-15T18:43:50.290Z,9.64
2023-10-15T18:46:17.098Z,9.71
2023-10-15T18:48:43.565Z,9.57
2023-10-15T18:51:34.609Z,9.83
2023-10-15T18:53:58.700Z,9.47
2023-10-15T18:56:25.308Z,9.78
2023-10-15T18:58:52.784Z,9.34
2023-10-15T19:01:22.639Z,9.59
2023-10-15T19:03:49.675Z,9.55
2023-10-15T19:06:16.288Z,9.39
2023-10-15T19:08:42.794Z,9.06
2023-10-15T19:11:14.453Z,9.22
2023-10-15T19:13:41.699Z,9.25
2023-10-15T19:16:08.261Z,9.23
2023-10-15T19:18:34.791Z,9.55
2023-10-15T19:21:01.479Z,9.46
2023-10-15T19:23:27.923Z,9.22
2023-10-15T19:26:04.281Z,9.37
2023-10-15T19:28:30.716Z,9.52
2023-10-15T19:30:57.098Z,9.64
2023-10-15T19:33:24.202Z,9.73
2023-10-15T19:35:50.852Z,9.66
2023-10-15T19:38:17.621Z,9.67
2023-10-15T19:40:43.974Z,9.49
2023-10-15T19:43:10.331Z,9.60
2023-10-15T19:45:36.740Z,9.61
2023-10-15T19:48:06.200Z,9.40
2023-10-15T19:50:32.828Z,9.29
2023-10-15T19:53:04.447Z,9.25
2023-10-15T19:55:32.148Z,9.23
2023-10-15T19:57:59.927Z,9.16
2023-10-15T20:00:29.425Z,9.09
2023-10-15T20:02:56.541Z,8.91
2023-10-15T20:05:23.154Z,9.08
2023-10-15T20:07:49.655Z,9.20
2023-10-15T20:10:16.453Z,8.83
2023-10-15T20:12:47.603Z,8.66
2023-10-15T20:15:18.554Z,8.75
2023-10-15T20:17:45.780Z,8.85
2023-10-15T20:20:13.877Z,8.89
2023-10-15T20:22:41.411Z,8.86
2023-10-15T20:25:12.957Z,8.70
2023-10-15T20:27:41.042Z,8.84
2023-10-15T20:30:11.957Z,8.63
2023-10-15T20:32:54.125Z,8.66
2023-10-15T20:35:21.865Z,8.71
2023-10-15T20:37:49.201Z,8.55
2023-10-15T20:40:15.650Z,8.60
2023-10-15T20:42:46.791Z,8.51
2023-10-15T20:45:17.805Z,8.64
2023-10-15T20:47:45.418Z,8.51
2023-10-15T20:50:15.585Z,8.49
2023-10-15T20:52:46.077Z,8.42
2023-10-15T20:55:13.587Z,8.48
2023-10-15T20:57:41.226Z,8.58
2023-10-15T21:00:13.037Z,8.35
2023-10-15T21:02:43.683Z,8.36
2023-10-15T21:05:11.556Z,8.41
2023-10-15T21:07:40.035Z,8.42
2023-10-15T21:10:07.614Z,8.39
2023-10-15T21:12:35.022Z,8.18
2023-10-15T21:15:01.457Z,8.27
2023-10-15T21:17:27.844Z,8.05
2023-10-15T21:19:57.134Z,8.09
2023-10-15T21:22:23.673Z,8.10
2023-10-15T21:24:50.097Z,8.12
2023-10-15T21:27:16.514Z,8.18
2023-10-15T21:29:43.756Z,8.20
2023-10-15T21:32:10.138Z,8.15
2023-10-15T21:34:36.560Z,8.27
2023-10-15T21:37:03.225Z,8.13
2023-10-15T21:39:29.614Z,8.20
2023-10-15T21:41:56.003Z,8.12
2023-10-15T21:44:22.395Z,8.08
2023-10-15T21:46:48.834Z,8.10
2023-10-15T21:49:15.754Z,8.33
2023-10-15T21:51:42.700Z,8.38
2023-10-15T21:54:10.853Z,8.46
2023-10-15T21:56:39.538Z,8.29
2023-10-15T21:59:06.114Z,8.41
2023-10-15T22:01:33.048Z,8.52
2023-10-15T22:03:59.618Z,8.28
2023-10-15T22:06:26.023Z,8.39
2023-10-15T22:08:52.987Z,8.15
2023-10-15T22:11:20.820Z,8.26
2023-10-15T22:13:48.201Z,8.21
2023-10-15T22:16:14.676Z,8.13
2023-10-15T22:18:41.306Z,8.06
2023-10-15T22:21:09.143Z,7.92
2023-10-15T22:23:37.931Z,7.88
2023-10-15T22:26:05.819Z,7.88
2023-10-15T22:28:32.414Z,7.75
2023-10-15T22:30:58.854Z,7.80
2023-10-15T22:33:29.479Z,7.95
2023-10-15T22:35:55.957Z,8.02
2023-10-15T22:38:22.290Z,7.86
2023-10-15T22:40:51.690Z,7.88
2023-10-15T22:43:21.707Z,7.88
2023-10-15T22:45:48.427Z,7.90
2023-10-15T22:48:16.951Z,7.81
2023-10-15T22:50:43.962Z,7.96
2023-10-15T22:53:12.545Z,7.83
2023-10-15T22:55:41.445Z,7.69
2023-10-15T22:58:07.969Z,7.76
2023-10-15T23:00:40.399Z,7.72
2023-10-15T23:03:07.691Z,7.62
2023-10-15T23:05:35.351Z,7.54
2023-10-15T23:08:02.582Z,7.59
2023-10-15T23:10:31.920Z,7.58
2023-10-15T23:12:58.302Z,7.42
2023-10-15T23:15:30.287Z,7.66
2023-10-15T23:17:59.785Z,7.54
2023-10-15T23:20:35.659Z,7.59
2023-10-15T23:23:06.666Z,7.61
2023-10-15T23:25:35.523Z,7.55
2023-10-15T23:28:14.085Z,7.45
2023-10-15T23:30:49.270Z,7.45
2023-10-15T23:33:16.918Z,7.38
2023-10-15T23:35:46.739Z,7.42
2023-10-15T23:38:13.535Z,7.42
2023-10-15T23:40:39.865Z,7.58
2023-10-15T23:43:06.188Z,7.35
2023-10-15T23:45:33.027Z,7.33
2023-10-15T23:48:15.068Z,7.52
2023-10-15T23:50:47.497Z,7.32
2023-10-15T23:53:20.908Z,7.22
2023-10-15T23:55:48.064Z,7.40
2023-10-15T23:58:14.430Z,7.41
